createdAt,value
2022-08-27T00:00:59.069Z,0.00
2022-08-27T00:02:00.040Z,0.00
2022-08-27T00:03:00.658Z,0.00
2022-08-27T00:04:01.655Z,0.00
2022-08-27T00:05:02.451Z,0.00
2022-08-27T00:06:03.336Z,0.00
2022-08-27T00:07:05.023Z,0.00
2022-08-27T00:08:04.905Z,0.00
2022-08-27T00:09:05.793Z,0.00
2022-08-27T00:10:06.673Z,0.00
2022-08-27T00:11:07.547Z,0.00
2022-08-27T00:12:08.410Z,0.00
2022-08-27T00:13:09.282Z,0.00
2022-08-27T00:14:10.166Z,0.00
2022-08-27T00:15:11.063Z,0.00
2022-08-27T00:16:11.984Z,0.00
2022-08-27T00:17:12.847Z,0.00
2022-08-27T00:18:13.704Z,0.00
2022-08-27T00:19:14.642Z,0.00
2022-08-27T00:20:15.487Z,0.00
2022-08-27T00:21:16.381Z,0.00
2022-08-27T00:22:17.265Z,0.00
2022-08-27T00:23:18.133Z,0.00
2022-08-27T00:24:19.016Z,0.00
2022-08-27T00:25:19.867Z,0.00
2022-08-27T00:26:20.774Z,0.00
2022-08-27T00:27:21.622Z,0.00
2022-08-27T00:28:22.499Z,0.00
2022-08-27T00:29:23.394Z,0.00
2022-08-27T00:30:24.332Z,0.00
2022-08-27T00:31:27.123Z,0.00
2022-08-27T00:32:26.020Z,0.00
2022-08-27T00:33:26.912Z,0.00
2022-08-27T00:34:27.796Z,0.00
2022-08-27T00:35:28.687Z,0.00
2022-08-27T00:36:29.574Z,0.00
2022-08-27T00:37:30.436Z,0.00
2022-08-27T00:38:31.307Z,0.00
2022-08-27T00:39:32.235Z,0.00
2022-08-27T00:40:33.139Z,0.00
2022-08-27T00:41:33.952Z,0.00
2022-08-27T00:42:34.820Z,0.00
2022-08-27T00:43:35.694Z,0.00
2022-08-27T00:44:36.581Z,0.00
2022-08-27T00:45:37.526Z,0.00
2022-08-27T00:46:38.357Z,0.00
2022-08-27T00:47:39.234Z,0.00
2022-08-27T00:48:40.127Z,0.00
2022-08-27T00:49:41.014Z,0.00
2022-08-27T00:50:41.920Z,0.00
2022-08-27T00:51:42.803Z,0.00
2022-08-27T00:52:43.691Z,0.00
2022-08-27T00:53:44.551Z,0.00
2022-08-27T00:54:45.435Z,0.00
2022-08-27T00:55:46.364Z,0.00
2022-08-27T00:56:50.661Z,0.00
2022-08-27T00:57:47.736Z,0.00
2022-08-27T00:58:48.593Z,0.00
2022-08-27T00:59:49.597Z,0.00
2022-08-27T01:00:51.465Z,0.00
2022-08-27T01:01:51.355Z,0.00
2022-08-27T01:02:52.163Z,0.00
2022-08-27T01:03:53.024Z,0.00
2022-08-27T01:04:53.892Z,0.00
2022-08-27T01:05:54.752Z,0.00
2022-08-27T01:06:55.622Z,0.00
2022-08-27T01:07:56.532Z,0.00
2022-08-27T01:08:57.394Z,0.00
2022-08-27T01:09:58.306Z,0.00
2022-08-27T01:10:59.175Z,0.00
2022-08-27T01:12:00.060Z,0.00
2022-08-27T01:13:00.916Z,0.00
2022-08-27T01:14:01.664Z,0.00
2022-08-27T01:15:02.518Z,0.00
2022-08-27T01:16:03.465Z,0.00
2022-08-27T01:17:04.276Z,0.00
2022-08-27T01:18:05.169Z,0.00
2022-08-27T01:19:06.076Z,0.00
2022-08-27T01:20:06.952Z,0.00
2022-08-27T01:21:07.825Z,0.00
2022-08-27T01:22:08.716Z,0.00
2022-08-27T01:23:09.570Z,0.00
2022-08-27T01:24:10.477Z,0.00
2022-08-27T01:25:11.332Z,0.00
2022-08-27T01:26:12.196Z,0.00
2022-08-27T01:27:13.473Z,0.00
2022-08-27T01:28:13.765Z,0.00
2022-08-27T01:29:14.631Z,0.00
2022-08-27T01:30:15.528Z,0.00
2022-08-27T01:31:16.430Z,0.00
2022-08-27T01:32:17.327Z,0.00
2022-08-27T01:33:18.133Z,0.00
2022-08-27T01:34:19.028Z,0.00
2022-08-27T01:35:19.896Z,0.00
2022-08-27T01:36:20.778Z,0.00
2022-08-27T01:37:23.493Z,0.00
2022-08-27T01:38:31.049Z,0.00
2022-08-27T01:39:24.207Z,0.00
2022-08-27T01:40:24.106Z,0.00
2022-08-27T01:41:24.654Z,0.00
2022-08-27T01:42:25.190Z,0.00
2022-08-27T01:43:26.092Z,0.00
2022-08-27T01:44:26.939Z,0.00
2022-08-27T01:45:27.817Z,0.00
2022-08-27T01:46:28.763Z,0.00
2022-08-27T01:47:30.761Z,0.00
2022-08-27T01:48:30.607Z,0.00
2022-08-27T01:49:31.459Z,0.00
2022-08-27T01:50:32.371Z,0.00
2022-08-27T01:51:33.271Z,0.00
2022-08-27T01:52:34.112Z,0.00
2022-08-27T01:53:34.981Z,0.00
2022-08-27T01:54:35.899Z,0.00
2022-08-27T01:55:36.758Z,0.00
2022-08-27T01:56:37.406Z,0.00
2022-08-27T01:57:38.279Z,0.00
2022-08-27T01:58:39.158Z,0.00
2022-08-27T01:59:40.163Z,0.00
2022-08-27T02:00:41.015Z,0.00
2022-08-27T02:01:41.881Z,0.00
2022-08-27T02:02:42.743Z,0.00
2022-08-27T02:03:43.627Z,0.00
2022-08-27T02:04:44.528Z,0.00
2022-08-27T02:05:45.437Z,0.00
2022-08-27T02:06:46.307Z,0.00
2022-08-27T02:07:47.178Z,0.00
2022-08-27T02:08:48.053Z,0.00
2022-08-27T02:09:48.939Z,0.00
2022-08-27T02:10:49.811Z,0.00
2022-08-27T02:11:50.690Z,0.00
2022-08-27T02:12:51.545Z,0.00
2022-08-27T02:13:52.419Z,0.00
2022-08-27T02:14:53.303Z,0.00
2022-08-27T02:15:54.228Z,0.00
2022-08-27T02:16:55.049Z,0.00
2022-08-27T02:17:55.936Z,0.00
2022-08-27T02:18:56.821Z,0.00
2022-08-27T02:19:57.714Z,0.00
2022-08-27T02:20:58.572Z,0.00
2022-08-27T02:21:59.440Z,0.00
2022-08-27T02:23:00.334Z,0.00
2022-08-27T02:24:01.225Z,0.00
2022-08-27T02:25:02.112Z,0.00
2022-08-27T02:26:02.998Z,0.00
2022-08-27T02:27:03.878Z,0.00
2022-08-27T02:28:04.752Z,0.00
2022-08-27T02:29:05.639Z,0.00
2022-08-27T02:30:06.531Z,0.00
2022-08-27T02:31:07.560Z,0.00
2022-08-27T02:32:17.603Z,0.00
2022-08-27T02:33:10.150Z,0.00
2022-08-27T02:34:10.038Z,0.00
2022-08-27T02:35:10.918Z,0.00
2022-08-27T02:36:11.809Z,0.00
2022-08-27T02:37:12.680Z,0.00
2022-08-27T02:38:13.559Z,0.00
2022-08-27T02:39:14.446Z,0.00
2022-08-27T02:40:15.359Z,0.00
2022-08-27T02:41:16.200Z,0.00
2022-08-27T02:42:17.079Z,0.00
2022-08-27T02:43:17.957Z,0.00
2022-08-27T02:44:19.712Z,0.00
2022-08-27T02:45:19.646Z,0.00
2022-08-27T02:46:20.541Z,0.00
2022-08-27T02:47:21.379Z,0.00
2022-08-27T02:48:22.237Z,0.00
2022-08-27T02:49:23.116Z,0.00
2022-08-27T02:50:27.020Z,0.00
2022-08-27T02:51:24.512Z,0.00
2022-08-27T02:52:25.421Z,0.00
2022-08-27T02:53:26.274Z,0.00
2022-08-27T02:54:26.930Z,0.00
2022-08-27T02:55:27.822Z,0.00
2022-08-27T02:56:28.697Z,0.00
2022-08-27T02:57:29.551Z,0.00
2022-08-27T02:58:30.158Z,0.00
2022-08-27T02:59:30.999Z,0.00
2022-08-27T03:00:31.885Z,0.00
2022-08-27T03:01:32.885Z,0.00
2022-08-27T03:02:33.852Z,0.00
2022-08-27T03:03:34.298Z,0.00
2022-08-27T03:04:35.143Z,0.00
2022-08-27T03:05:36.053Z,0.00
2022-08-27T03:06:36.920Z,0.00
2022-08-27T03:07:37.813Z,0.00
2022-08-27T03:08:52.274Z,0.00
2022-08-27T03:09:40.454Z,0.00
2022-08-27T03:10:40.343Z,0.00
2022-08-27T03:11:41.212Z,0.00
2022-08-27T03:12:42.142Z,0.00
2022-08-27T03:13:42.972Z,0.00
2022-08-27T03:14:43.865Z,0.00
2022-08-27T03:15:44.793Z,0.00
2022-08-27T03:16:45.613Z,0.00
2022-08-27T03:17:46.548Z,0.00
2022-08-27T03:18:47.402Z,0.00
2022-08-27T03:19:48.258Z,0.00
2022-08-27T03:20:49.144Z,0.00
2022-08-27T03:21:54.733Z,0.00
2022-08-27T03:22:51.778Z,0.00
2022-08-27T03:23:51.715Z,0.00
2022-08-27T03:24:52.534Z,0.00
2022-08-27T03:25:53.417Z,0.00
2022-08-27T03:26:54.309Z,0.00
2022-08-27T03:27:55.215Z,0.00
2022-08-27T03:28:56.072Z,0.00
2022-08-27T03:30:00.674Z,0.00
2022-08-27T03:30:58.790Z,0.00
2022-08-27T03:31:58.649Z,0.00
2022-08-27T03:32:59.481Z,0.00
2022-08-27T03:34:00.411Z,0.00
2022-08-27T03:35:01.242Z,0.00
2022-08-27T03:36:02.130Z,0.00
2022-08-27T03:37:03.014Z,0.00
2022-08-27T03:38:03.875Z,0.00
2022-08-27T03:39:04.747Z,0.00
2022-08-27T03:40:05.694Z,0.00
2022-08-27T03:41:06.576Z,0.00
2022-08-27T03:42:07.420Z,0.00
2022-08-27T03:43:08.308Z,0.00
2022-08-27T03:44:09.168Z,0.00
2022-08-27T03:45:10.062Z,0.00
2022-08-27T03:46:11.107Z,0.00
2022-08-27T03:50:51.006Z,0.00
2022-08-27T03:51:51.876Z,0.00
2022-08-27T03:52:52.749Z,0.00
2022-08-27T03:53:53.357Z,0.00
2022-08-27T03:54:54.230Z,0.00
2022-08-27T03:55:55.116Z,0.00
2022-08-27T03:56:55.989Z,0.00
2022-08-27T03:57:56.856Z,0.00
2022-08-27T03:58:57.725Z,0.00
2022-08-27T03:59:58.620Z,0.00
2022-08-27T04:00:59.533Z,0.00
2022-08-27T04:02:00.467Z,0.00
2022-08-27T04:03:01.367Z,0.00
2022-08-27T04:04:02.219Z,0.00
2022-08-27T04:05:03.093Z,0.00
2022-08-27T04:06:04.042Z,0.00
2022-08-27T04:07:04.945Z,0.00
2022-08-27T04:08:05.822Z,0.00
2022-08-27T04:09:06.683Z,0.00
2022-08-27T04:10:07.583Z,0.00
2022-08-27T04:11:08.455Z,0.00
2022-08-27T04:12:09.346Z,0.00
2022-08-27T04:13:10.222Z,0.00
2022-08-27T04:14:19.933Z,0.00
2022-08-27T04:15:12.853Z,0.00
2022-08-27T04:16:12.825Z,0.00
2022-08-27T04:17:13.661Z,0.00
2022-08-27T04:18:14.545Z,0.00
2022-08-27T04:19:15.449Z,0.00
2022-08-27T04:20:34.570Z,0.00
2022-08-27T04:21:17.948Z,0.00
2022-08-27T04:22:17.821Z,0.00
2022-08-27T04:23:18.720Z,0.00
2022-08-27T04:24:19.588Z,0.00
2022-08-27T04:25:20.472Z,0.00
2022-08-27T04:26:21.370Z,0.00
2022-08-27T04:27:21.995Z,0.00
2022-08-27T04:28:22.867Z,0.00
2022-08-27T04:29:23.767Z,0.00
2022-08-27T04:30:24.641Z,0.00
2022-08-27T04:31:25.553Z,0.00
2022-08-27T04:32:29.080Z,0.00
2022-08-27T04:33:27.019Z,0.00
2022-08-27T04:34:27.900Z,0.00
2022-08-27T04:35:28.746Z,0.00
2022-08-27T04:36:29.657Z,0.00
2022-08-27T04:37:30.523Z,0.00
2022-08-27T04:38:31.393Z,0.00
2022-08-27T04:39:32.301Z,0.00
2022-08-27T04:40:33.257Z,0.00
2022-08-27T04:41:34.111Z,0.00
2022-08-27T04:42:34.987Z,0.00
2022-08-27T04:43:35.858Z,0.00
2022-08-27T04:44:36.728Z,0.00
2022-08-27T04:45:37.615Z,0.00
2022-08-27T04:46:38.621Z,0.00
2022-08-27T04:47:39.023Z,0.00
2022-08-27T04:48:39.892Z,0.00
2022-08-27T04:49:40.442Z,0.00
2022-08-27T04:50:41.276Z,0.00
2022-08-27T04:51:42.062Z,0.00
2022-08-27T04:52:42.593Z,0.00
2022-08-27T04:53:43.493Z,0.00
2022-08-27T04:54:44.362Z,0.00
2022-08-27T04:55:45.232Z,0.00
2022-08-27T04:56:46.131Z,0.00
2022-08-27T04:57:47.016Z,0.00
2022-08-27T04:58:47.905Z,0.00
2022-08-27T04:59:48.756Z,0.00
2022-08-27T05:00:49.632Z,0.00
2022-08-27T05:01:50.601Z,0.00
2022-08-27T05:02:51.413Z,0.00
2022-08-27T05:03:52.290Z,0.00
2022-08-27T05:04:53.197Z,5.62
2022-08-27T05:05:54.065Z,5.62
2022-08-27T05:06:55.025Z,5.62
2022-08-27T05:07:55.831Z,5.62
2022-08-27T05:08:56.709Z,5.62
2022-08-27T05:09:57.568Z,5.62
2022-08-27T05:10:58.443Z,5.62
2022-08-27T05:11:59.334Z,5.62
2022-08-27T05:13:00.231Z,5.62
2022-08-27T05:14:01.079Z,5.62
2022-08-27T05:15:01.958Z,5.62
2022-08-27T05:16:02.852Z,5.62
2022-08-27T05:17:03.718Z,5.62
2022-08-27T05:18:04.765Z,5.62
2022-08-27T05:19:05.143Z,5.62
2022-08-27T05:20:06.001Z,5.62
2022-08-27T05:21:06.882Z,5.62
2022-08-27T05:22:08.693Z,5.62
2022-08-27T05:23:08.539Z,11.25
2022-08-27T05:24:09.421Z,11.25
2022-08-27T05:25:10.314Z,11.25
2022-08-27T05:26:11.176Z,11.25
2022-08-27T05:27:12.983Z,11.25
2022-08-27T05:28:12.876Z,11.25
2022-08-27T05:29:13.742Z,11.25
2022-08-27T05:30:14.622Z,11.25
2022-08-27T05:31:15.549Z,11.25
2022-08-27T05:32:16.378Z,16.88
2022-08-27T05:33:17.263Z,16.88
2022-08-27T05:34:24.620Z,16.88
2022-08-27T05:35:19.896Z,16.88
2022-08-27T05:36:19.766Z,16.88
2022-08-27T05:37:20.669Z,16.88
2022-08-27T05:38:21.555Z,16.88
2022-08-27T05:39:22.423Z,11.25
2022-08-27T05:40:23.326Z,16.88
2022-08-27T05:41:24.147Z,16.88
2022-08-27T05:42:25.922Z,16.88
2022-08-27T05:43:25.815Z,16.88
2022-08-27T05:44:42.271Z,16.88
2022-08-27T05:45:28.439Z,16.88
2022-08-27T05:46:28.408Z,16.88
2022-08-27T05:47:29.236Z,16.88
2022-08-27T05:48:30.149Z,16.88
2022-08-27T05:49:30.997Z,16.88
2022-08-27T05:50:31.875Z,16.88
2022-08-27T05:51:32.744Z,16.88
2022-08-27T05:52:33.637Z,16.88
2022-08-27T05:53:34.438Z,22.50
2022-08-27T05:54:35.294Z,22.50
2022-08-27T05:55:36.160Z,22.50
2022-08-27T05:56:37.086Z,22.50
2022-08-27T05:57:37.954Z,22.50
2022-08-27T05:58:38.837Z,22.50
2022-08-27T05:59:39.722Z,22.50
2022-08-27T06:00:40.625Z,22.50
2022-08-27T06:01:41.516Z,22.50
2022-08-27T06:02:42.445Z,22.50
2022-08-27T06:03:43.301Z,22.50
2022-08-27T06:04:44.189Z,22.50
2022-08-27T06:05:45.051Z,22.50
2022-08-27T06:06:45.988Z,22.50
2022-08-27T06:07:46.845Z,28.12
2022-08-27T06:08:47.709Z,28.12
2022-08-27T06:09:48.577Z,28.12
2022-08-27T06:10:49.460Z,33.75
2022-08-27T06:11:50.370Z,33.75
2022-08-27T06:12:54.988Z,33.75
2022-08-27T06:13:53.011Z,33.75
2022-08-27T06:14:52.849Z,33.75
2022-08-27T06:15:53.483Z,33.75
2022-08-27T06:16:54.317Z,39.38
2022-08-27T06:17:55.198Z,39.38
2022-08-27T06:18:56.071Z,39.38
2022-08-27T06:19:56.953Z,39.38
2022-08-27T06:20:57.842Z,45.00
2022-08-27T06:22:00.831Z,45.00
2022-08-27T06:23:00.490Z,45.00
2022-08-27T06:24:00.379Z,45.00
2022-08-27T06:25:01.243Z,50.62
2022-08-27T06:26:02.222Z,56.25
2022-08-27T06:27:02.626Z,56.25
2022-08-27T06:28:03.561Z,61.88
2022-08-27T06:29:04.436Z,61.88
2022-08-27T06:30:05.389Z,61.88
2022-08-27T06:31:06.374Z,61.88
2022-08-27T06:32:07.285Z,61.88
2022-08-27T06:33:08.144Z,67.50
2022-08-27T06:34:09.020Z,73.12
2022-08-27T06:35:09.908Z,73.12
2022-08-27T06:36:10.796Z,78.75
2022-08-27T06:37:11.726Z,78.75
2022-08-27T06:38:12.609Z,84.38
2022-08-27T06:39:13.463Z,84.38
2022-08-27T06:40:14.470Z,84.38
2022-08-27T06:41:16.564Z,90.00
2022-08-27T06:42:17.065Z,90.00
2022-08-27T06:43:16.935Z,90.00
2022-08-27T06:44:17.820Z,90.00
2022-08-27T06:45:18.688Z,90.00
2022-08-27T06:46:19.604Z,95.62
2022-08-27T06:47:21.296Z,101.25
2022-08-27T06:48:21.230Z,106.88
2022-08-27T06:49:22.126Z,112.50
2022-08-27T06:50:27.092Z,118.12
2022-08-27T06:51:23.709Z,123.75
2022-08-27T06:52:24.608Z,129.38
2022-08-27T06:53:25.486Z,135.00
2022-08-27T06:54:26.355Z,135.00
2022-08-27T06:55:27.239Z,135.00
2022-08-27T06:56:28.114Z,135.00
2022-08-27T06:57:29.002Z,135.00
2022-08-27T06:58:29.864Z,135.00
2022-08-27T06:59:30.783Z,135.00
2022-08-27T07:00:31.597Z,135.00
2022-08-27T07:01:32.573Z,135.00
2022-08-27T07:02:33.470Z,135.00
2022-08-27T07:03:34.309Z,140.62
2022-08-27T07:04:35.189Z,146.25
2022-08-27T07:05:36.070Z,146.25
2022-08-27T07:06:36.944Z,151.88
2022-08-27T07:07:43.176Z,151.88
2022-08-27T07:08:39.597Z,151.88
2022-08-27T07:09:39.465Z,151.88
2022-08-27T07:10:40.351Z,151.88
2022-08-27T07:11:41.221Z,146.25
2022-08-27T07:12:42.111Z,146.25
2022-08-27T07:13:42.986Z,146.25
2022-08-27T07:14:43.857Z,140.62
2022-08-27T07:15:44.824Z,140.62
2022-08-27T07:16:45.654Z,146.25
2022-08-27T07:17:46.597Z,146.25
2022-08-27T07:18:47.092Z,146.25
2022-08-27T07:19:47.687Z,151.88
2022-08-27T07:20:48.562Z,146.25
2022-08-27T07:21:49.440Z,151.88
2022-08-27T07:22:50.374Z,146.25
2022-08-27T07:23:51.225Z,146.25
2022-08-27T07:24:52.173Z,146.25
2022-08-27T07:25:53.154Z,146.25
2022-08-27T07:26:53.982Z,146.25
2022-08-27T07:27:54.841Z,146.25
2022-08-27T07:28:55.751Z,151.88
2022-08-27T07:29:56.600Z,151.88
2022-08-27T07:30:57.506Z,157.50
2022-08-27T07:31:58.359Z,157.50
2022-08-27T07:32:59.260Z,163.12
2022-08-27T07:34:00.139Z,163.12
2022-08-27T07:35:00.990Z,168.75
2022-08-27T07:36:02.169Z,174.38
2022-08-27T07:37:02.474Z,174.38
2022-08-27T07:38:03.439Z,185.62
2022-08-27T07:39:04.251Z,191.25
2022-08-27T07:40:05.189Z,196.88
2022-08-27T07:41:06.053Z,196.88
2022-08-27T07:42:06.910Z,196.88
2022-08-27T07:43:07.779Z,196.88
2022-08-27T07:44:08.689Z,196.88
2022-08-27T07:45:09.588Z,196.88
2022-08-27T07:46:10.482Z,196.88
2022-08-27T07:47:11.340Z,202.50
2022-08-27T07:48:12.421Z,208.12
2022-08-27T07:49:12.872Z,219.38
2022-08-27T07:50:13.719Z,225.00
2022-08-27T07:51:14.596Z,225.00
2022-08-27T07:52:16.419Z,225.00
2022-08-27T07:53:16.310Z,219.38
2022-08-27T07:54:17.154Z,225.00
2022-08-27T07:55:18.048Z,219.38
2022-08-27T07:56:18.898Z,225.00
2022-08-27T07:57:19.831Z,230.62
2022-08-27T07:58:20.706Z,230.62
2022-08-27T07:59:21.559Z,236.25
2022-08-27T08:00:22.078Z,230.62
2022-08-27T08:01:22.987Z,230.62
2022-08-27T08:02:23.855Z,236.25
2022-08-27T08:03:24.727Z,236.25
2022-08-27T08:04:25.583Z,236.25
2022-08-27T08:05:26.489Z,230.62
2022-08-27T08:06:27.311Z,225.00
2022-08-27T08:07:28.387Z,225.00
2022-08-27T08:10:18.969Z,225.00
2022-08-27T08:11:19.840Z,241.88
2022-08-27T08:12:21.098Z,253.12
2022-08-27T08:13:22.488Z,264.38
2022-08-27T08:14:22.350Z,270.00
2022-08-27T08:15:23.221Z,270.00
2022-08-27T08:16:26.269Z,264.38
2022-08-27T08:17:24.757Z,253.12
2022-08-27T08:18:25.595Z,241.88
2022-08-27T08:19:26.481Z,225.00
2022-08-27T08:20:41.511Z,208.12
2022-08-27T08:21:29.101Z,191.25
2022-08-27T08:22:28.994Z,180.00
2022-08-27T08:23:29.869Z,180.00
2022-08-27T08:24:30.745Z,168.75
2022-08-27T08:25:38.404Z,151.88
2022-08-27T08:26:33.373Z,135.00
2022-08-27T08:27:33.371Z,112.50
2022-08-27T08:28:34.227Z,95.62
2022-08-27T08:29:35.127Z,84.38
2022-08-27T08:30:36.133Z,73.12
2022-08-27T08:31:36.518Z,61.88
2022-08-27T08:32:37.388Z,61.88
2022-08-27T08:33:38.298Z,56.25
2022-08-27T08:34:39.132Z,56.25
2022-08-27T08:35:40.610Z,56.25
2022-08-27T08:36:40.840Z,56.25
2022-08-27T08:37:41.742Z,50.62
2022-08-27T08:38:42.637Z,50.62
2022-08-27T08:39:43.586Z,50.62
2022-08-27T08:40:44.395Z,56.25
2022-08-27T08:41:45.261Z,56.25
2022-08-27T08:42:50.783Z,56.25
2022-08-27T08:43:46.746Z,61.88
2022-08-27T08:44:47.615Z,61.88
2022-08-27T08:45:48.999Z,61.88
2022-08-27T08:46:49.327Z,67.50
2022-08-27T08:47:50.316Z,67.50
2022-08-27T08:48:51.125Z,73.12
2022-08-27T08:49:51.998Z,78.75
2022-08-27T08:50:52.869Z,84.38
2022-08-27T08:51:53.759Z,90.00
2022-08-27T08:52:54.646Z,95.62
2022-08-27T08:53:55.513Z,90.00
2022-08-27T08:54:56.309Z,95.62
2022-08-27T08:55:58.104Z,95.62
2022-08-27T08:56:57.974Z,90.00
2022-08-27T08:57:58.955Z,90.00
2022-08-27T08:59:00.886Z,95.62
2022-08-27T09:00:00.748Z,95.62
2022-08-27T09:01:01.650Z,95.62
2022-08-27T09:02:02.493Z,101.25
2022-08-27T09:03:03.390Z,106.88
2022-08-27T09:04:04.385Z,112.50
2022-08-27T09:05:05.247Z,118.12
2022-08-27T09:06:06.106Z,129.38
2022-08-27T09:07:07.000Z,129.38
2022-08-27T09:08:32.036Z,129.38
2022-08-27T09:09:09.643Z,135.00
2022-08-27T09:10:09.515Z,135.00
2022-08-27T09:11:10.483Z,146.25
2022-08-27T09:12:11.348Z,151.88
2022-08-27T09:13:12.223Z,168.75
2022-08-27T09:14:13.923Z,180.00
2022-08-27T09:15:13.830Z,185.62
2022-08-27T09:16:14.700Z,185.62
2022-08-27T09:17:15.602Z,180.00
2022-08-27T09:18:16.171Z,168.75
2022-08-27T09:19:17.088Z,163.12
2022-08-27T09:20:18.783Z,151.88
2022-08-27T09:21:18.698Z,151.88
2022-08-27T09:22:20.769Z,151.88
2022-08-27T09:23:20.056Z,157.50
2022-08-27T09:24:20.922Z,168.75
2022-08-27T09:25:21.798Z,180.00
2022-08-27T09:26:22.732Z,191.25
2022-08-27T09:27:23.622Z,202.50
2022-08-27T09:28:24.476Z,208.12
2022-08-27T09:29:25.374Z,213.75
2022-08-27T09:30:30.380Z,208.12
2022-08-27T09:31:27.057Z,196.88
2022-08-27T09:32:27.904Z,191.25
2022-08-27T09:33:46.081Z,174.38
2022-08-27T09:34:30.530Z,168.75
2022-08-27T09:35:30.430Z,174.38
2022-08-27T09:36:31.391Z,180.00
2022-08-27T09:37:34.622Z,185.62
2022-08-27T09:38:32.748Z,196.88
2022-08-27T09:39:33.621Z,202.50
2022-08-27T09:40:34.556Z,202.50
2022-08-27T09:41:35.764Z,202.50
2022-08-27T09:42:36.077Z,208.12
2022-08-27T09:43:37.068Z,208.12
2022-08-27T09:44:37.893Z,208.12
2022-08-27T09:45:38.855Z,213.75
2022-08-27T09:46:39.669Z,219.38
2022-08-27T09:47:40.612Z,213.75
2022-08-27T09:48:41.483Z,208.12
2022-08-27T09:49:42.450Z,202.50
2022-08-27T09:50:44.052Z,196.88
2022-08-27T09:51:43.962Z,196.88
2022-08-27T09:52:44.808Z,196.88
2022-08-27T09:53:45.720Z,196.88
2022-08-27T09:54:46.274Z,185.62
2022-08-27T09:55:47.148Z,180.00
2022-08-27T09:56:48.042Z,174.38
2022-08-27T09:57:48.913Z,168.75
2022-08-27T09:58:49.848Z,163.12
2022-08-27T09:59:50.720Z,157.50
2022-08-27T10:00:51.651Z,157.50
2022-08-27T10:01:52.493Z,157.50
2022-08-27T10:02:53.426Z,163.12
2022-08-27T10:03:54.361Z,168.75
2022-08-27T10:04:55.194Z,174.38
2022-08-27T10:05:56.056Z,180.00
2022-08-27T10:06:56.929Z,180.00
2022-08-27T10:07:57.830Z,185.62
2022-08-27T10:08:58.704Z,185.62
2022-08-27T10:09:59.585Z,191.25
2022-08-27T10:11:00.460Z,191.25
2022-08-27T10:12:01.337Z,191.25
2022-08-27T10:13:02.272Z,185.62
2022-08-27T10:14:03.989Z,174.38
2022-08-27T10:15:03.870Z,163.12
2022-08-27T10:16:04.829Z,157.50
2022-08-27T10:17:05.687Z,151.88
2022-08-27T10:18:06.600Z,151.88
2022-08-27T10:19:07.456Z,151.88
2022-08-27T10:20:08.328Z,151.88
2022-08-27T10:21:09.214Z,157.50
2022-08-27T10:22:10.107Z,163.12
2022-08-27T10:23:10.972Z,168.75
2022-08-27T10:24:11.843Z,174.38
2022-08-27T10:25:12.715Z,180.00
2022-08-27T10:26:13.586Z,185.62
2022-08-27T10:27:14.517Z,191.25
2022-08-27T10:28:15.340Z,196.88
2022-08-27T10:29:16.246Z,196.88
2022-08-27T10:30:17.161Z,196.88
2022-08-27T10:31:18.096Z,196.88
2022-08-27T10:32:18.951Z,196.88
2022-08-27T10:33:23.408Z,202.50
2022-08-27T10:34:20.561Z,202.50
2022-08-27T10:35:21.305Z,208.12
2022-08-27T10:36:22.175Z,208.12
2022-08-27T10:37:23.144Z,213.75
2022-08-27T10:38:23.756Z,219.38
2022-08-27T10:39:24.639Z,225.00
2022-08-27T10:40:25.446Z,230.62
2022-08-27T10:41:26.285Z,230.62
2022-08-27T10:42:27.187Z,230.62
2022-08-27T10:43:28.102Z,225.00
2022-08-27T10:44:28.949Z,225.00
2022-08-27T10:45:31.369Z,219.38
2022-08-27T10:46:30.468Z,225.00
2022-08-27T10:47:31.307Z,225.00
2022-08-27T10:48:32.204Z,225.00
2022-08-27T10:49:33.071Z,225.00
2022-08-27T10:50:33.983Z,219.38
2022-08-27T10:51:34.854Z,219.38
2022-08-27T10:52:35.734Z,219.38
2022-08-27T10:53:36.643Z,213.75
2022-08-27T10:54:37.536Z,219.38
2022-08-27T10:55:38.422Z,219.38
2022-08-27T10:56:39.334Z,219.38
2022-08-27T10:57:53.189Z,219.38
2022-08-27T10:58:41.973Z,225.00
2022-08-27T10:59:41.822Z,225.00
2022-08-27T11:00:42.815Z,230.62
2022-08-27T11:01:43.847Z,230.62
2022-08-27T11:02:44.150Z,230.62
2022-08-27T11:03:45.035Z,225.00
2022-08-27T11:04:45.933Z,225.00
2022-08-27T11:05:46.782Z,219.38
2022-08-27T11:06:47.668Z,219.38
2022-08-27T11:07:48.552Z,213.75
2022-08-27T11:08:49.452Z,208.12
2022-08-27T11:09:54.867Z,202.50
2022-08-27T11:10:52.155Z,196.88
2022-08-27T11:12:13.431Z,191.25
2022-08-27T11:12:53.806Z,185.62
2022-08-27T11:13:53.655Z,180.00
2022-08-27T11:14:55.426Z,174.38
2022-08-27T11:15:55.282Z,174.38
2022-08-27T11:16:56.217Z,168.75
2022-08-27T11:17:57.104Z,163.12
2022-08-27T11:18:57.945Z,163.12
2022-08-27T11:19:58.815Z,168.75
2022-08-27T11:20:59.732Z,168.75
2022-08-27T11:22:00.597Z,168.75
2022-08-27T11:23:01.479Z,168.75
2022-08-27T11:24:02.359Z,174.38
2022-08-27T11:25:03.234Z,174.38
2022-08-27T11:26:04.110Z,180.00
2022-08-27T11:27:04.982Z,180.00
2022-08-27T11:28:05.928Z,185.62
2022-08-27T11:29:06.785Z,185.62
2022-08-27T11:30:07.725Z,185.62
2022-08-27T11:31:08.171Z,185.62
2022-08-27T11:32:08.985Z,191.25
2022-08-27T11:33:13.704Z,191.25
2022-08-27T11:34:10.619Z,191.25
2022-08-27T11:35:11.487Z,196.88
2022-08-27T11:36:12.355Z,202.50
2022-08-27T11:37:13.286Z,213.75
2022-08-27T11:38:15.119Z,219.38
2022-08-27T11:39:15.000Z,225.00
2022-08-27T11:40:16.002Z,236.25
2022-08-27T11:41:16.367Z,247.50
2022-08-27T11:42:17.228Z,258.75
2022-08-27T11:43:18.131Z,264.38
2022-08-27T11:44:18.974Z,275.62
2022-08-27T11:45:19.854Z,281.25
2022-08-27T11:46:20.758Z,286.88
2022-08-27T11:47:21.430Z,292.50
2022-08-27T11:48:22.319Z,303.75
2022-08-27T11:49:23.186Z,315.00
2022-08-27T11:50:24.076Z,320.62
2022-08-27T11:51:24.980Z,309.38
2022-08-27T11:52:25.894Z,298.12
2022-08-27T11:53:28.425Z,292.50
2022-08-27T11:54:27.425Z,286.88
2022-08-27T11:55:28.292Z,270.00
2022-08-27T11:56:29.189Z,258.75
2022-08-27T11:57:30.041Z,241.88
2022-08-27T11:58:32.978Z,225.00
2022-08-27T11:59:32.750Z,213.75
2022-08-27T12:00:32.633Z,202.50
2022-08-27T12:01:34.467Z,196.88
2022-08-27T12:02:34.305Z,196.88
2022-08-27T12:03:35.204Z,191.25
2022-08-27T12:04:36.038Z,191.25
2022-08-27T12:05:36.905Z,191.25
2022-08-27T12:06:37.772Z,196.88
2022-08-27T12:07:38.674Z,202.50
2022-08-27T12:08:39.564Z,219.38
2022-08-27T12:09:40.426Z,241.88
2022-08-27T12:10:41.280Z,258.75
2022-08-27T12:11:41.770Z,275.62
2022-08-27T12:12:42.649Z,292.50
2022-08-27T12:13:43.530Z,320.62
2022-08-27T12:14:44.403Z,354.38
2022-08-27T12:15:45.311Z,393.75
2022-08-27T12:16:46.220Z,427.50
2022-08-27T12:17:47.106Z,444.38
2022-08-27T12:18:47.979Z,461.25
2022-08-27T12:19:48.833Z,450.00
2022-08-27T12:20:49.801Z,444.38
2022-08-27T12:21:50.674Z,461.25
2022-08-27T12:22:51.558Z,489.38
2022-08-27T12:23:52.446Z,523.12
2022-08-27T12:24:55.560Z,545.62
2022-08-27T12:25:54.286Z,551.25
2022-08-27T12:26:55.144Z,545.62
2022-08-27T12:27:56.141Z,523.12
2022-08-27T12:28:57.021Z,506.25
2022-08-27T12:29:57.906Z,500.62
2022-08-27T12:30:58.861Z,500.62
2022-08-27T12:31:59.710Z,495.00
2022-08-27T12:33:00.634Z,511.88
2022-08-27T12:34:01.494Z,500.62
2022-08-27T12:35:02.355Z,472.50
2022-08-27T12:36:03.114Z,455.62
2022-08-27T12:38:53.243Z,393.75
2022-08-27T12:39:54.176Z,354.38
2022-08-27T12:40:54.990Z,348.75
2022-08-27T12:41:55.851Z,337.50
2022-08-27T12:42:56.742Z,309.38
2022-08-27T12:43:57.612Z,286.88
2022-08-27T12:44:58.482Z,258.75
2022-08-27T12:45:59.381Z,241.88
2022-08-27T12:47:00.329Z,230.62
2022-08-27T12:48:01.423Z,225.00
2022-08-27T12:49:12.731Z,219.38
2022-08-27T12:50:03.605Z,213.75
2022-08-27T12:51:03.497Z,208.12
2022-08-27T12:52:04.360Z,213.75
2022-08-27T12:53:05.244Z,219.38
2022-08-27T12:54:06.170Z,225.00
2022-08-27T12:55:07.020Z,225.00
2022-08-27T12:56:07.924Z,236.25
2022-08-27T12:57:08.932Z,236.25
2022-08-27T12:58:14.840Z,241.88
2022-08-27T12:59:11.641Z,241.88
2022-08-27T13:00:11.138Z,247.50
2022-08-27T13:01:12.073Z,247.50
2022-08-27T13:02:13.078Z,247.50
2022-08-27T13:03:14.110Z,247.50
2022-08-27T13:04:15.434Z,247.50
2022-08-27T13:05:15.317Z,247.50
2022-08-27T13:06:16.185Z,253.12
2022-08-27T13:07:17.088Z,258.75
2022-08-27T13:08:17.996Z,264.38
2022-08-27T13:09:18.928Z,275.62
2022-08-27T13:10:19.788Z,292.50